Jacksonville, FL

8:24 AM EDT on August 04, 2015 (GMT -0400)
Jacksonville International | | Change Station
CLOSE
Current Station
Airport
Location: Jacksonville,
Elevation: 30 ft
Nearby Weather Stations

Elev 30 ft 30.49 °N, 81.69 °W | Updated 8 minutes ago

Overcast
Overcast
78 °F
Feels Like 78 °F
N
7
Wind Variable Wind from SSW

Today
High -- | Low -- °F
--% Chance of Precip.
Yesterday
High -- | Low -- °F
Precip. -- in
6:46 AM 8:18 PM
Waning Gibbous, 78% visible
Pressure 29.98 in
Visibility 9.0 miles
Clouds Overcast 1300 ft
Dew Point 76 °F
Humidity 93%
Rainfall 0.00 in
Snow Depth Not available.
UV 0 out of 12
Pollen 4.80 out of 12
Air Quality Not available.
Flu Activity Not available.
SPECI KJAX 041216Z 21006KT 9SM OVC013 26/24 A2998 RMK AO2 T02560244

More Conditions Fewer Conditions

Pressure 29.98 in
Visibility 9.0 miles
Clouds Overcast 1300 ft
Dew Point 76 °F
Humidity 93%
Rainfall 0.00 in
Snow Depth Not available.
UV 0 out of 12
Pollen 4.80 out of 12
Air Quality Not available.
Flu Activity Not available.
SPECI KJAX 041216Z 21006KT 9SM OVC013 26/24 A2998 RMK AO2 T02560244

More Conditions Fewer Conditions

10-Day Weather Forecast

×

Almanac

Astronomy

Aug. 04, 2015 Rise Set
Actual Time
Civil Twilight
Nautical Twilight
Astronomical Twilight
Moon
Length of Visible Light
Length of Day
Tomorrow will be .
, % of the Moon is Illuminated

Today's Extremes

State Highs State Lows

Community

WunderPhotos

Upload Photos

1,843,910 photos uploaded!

WunderBlogs® & News

Nearby

Air Quality

  Air Quality AQ Index Pollutant
Not available.

Snow Depth

Station Depth Elevation

Earthquake Activity

City Distance Mag. Time & Date
Minimum magnitude displayed is 2.5.

Coastal Water Temperatures

Place Temperature

Stations

Nearby Weather Stations

Station Location Temp. Windchill Dew Point Humidity Wind Precip. Elev Updated Type